Flight Track Log - Related Links

Times and Time Zones

All times are in EDT time to prevent confusion due to time zone crossing. See the EJM19 flight status page for this flight to view local times or setup timezone preferences in your user account.

Time Position Orientation Groundspeed Altitude Reporting Facility
EDT Latitude Longitude Course Direction KTS MPH feet Rate Location/Type
Mon 08:33:01 PM 40.8833 -74.0333 268° West 188 216 2,200  Level New TRACON
Mon 08:33:55 PM 40.9167 -74.0833 311° West 209 241 3,900 1,950 Climbing New TRACON
Mon 08:35:01 PM 40.9000 -74.1667 255° West 248 285 6,100 1,952 Climbing New TRACON
Mon 08:36:01 PM 40.9000 -74.2667 270° West 260 299 8,000 2,000 Climbing New TRACON
Mon 08:37:01 PM 40.9000 -74.3667 270° West 278 320 10,100 2,250 Climbing New TRACON
Mon 08:38:00 PM 40.8266 -74.7327 268° West  Level Estimated
Mon 08:38:01 PM 40.9167 -74.4833 281° West 327 376 12,500  Level New TRACON
Mon 08:39:07 PM 40.9122 -74.5958 267° West 346 398 16,300 2,143 Climbing New Center
Mon 08:40:07 PM 40.9136 -74.7389 271° West 352 405 17,000 605 Climbing New Center
Mon 08:41:06 PM 40.9161 -74.8542 272° West 357 411 17,500 1,388 Climbing New Center
Mon 08:42:08 PM 40.9158 -74.9806 270° West 357 411 19,800 2,521 Climbing New Center
Mon 08:43:05 PM 40.9167 -75.1261 270° West 371 427 22,500 2,154 Climbing New Center
Mon 08:44:05 PM 40.8969 -75.2650 259° West 376 433 24,000 744 Climbing New Center
Mon 08:45:06 PM 40.8664 -75.4056 254° West 392 451 24,000 1,033 Level New Center
Mon 08:46:07 PM 40.8336 -75.5486 253° West 397 457 26,100 2,168 Climbing New Center
Mon 08:47:05 PM 40.8011 -75.6836 252° West 397 457 28,300 2,218 Climbing New Center
Mon 08:48:06 PM 40.7867 -75.8250 262° West 397 457 30,500 2,164 Climbing New Center
Mon 08:49:07 PM 40.7789 -75.9614 266° West 387 445 32,700 2,033 Climbing New Center
Mon 08:50:07 PM 40.7728 -76.0953 267° West 376 433 34,600 1,664 Climbing New Center
Mon 08:51:06 PM 40.7650 -76.2236 265° West 366 421 36,000 1,462 Climbing New Center
Mon 08:52:06 PM 40.7611 -76.3492 268° West 361 415 37,500 992 Climbing New Center
Mon 08:53:07 PM 40.7531 -76.4772 265° West 356 410 38,000 504 Climbing New Center
Mon 08:54:05 PM 40.7444 -76.6081 265° West 356 410 38,500 508 Climbing New Center
Mon 08:55:05 PM 40.7378 -76.7444 266° West 369 425 39,000 492 Climbing New Center
Mon 08:56:07 PM 40.7306 -76.8864 266° West 381 438 39,500 492 Climbing New Center
Mon 08:57:07 PM 40.7228 -77.0308 266° West 386 444 40,000 250 Climbing New Center
Mon 08:58:07 PM 40.7153 -77.1753 266° West 391 450 40,000  Level New Center
Mon 08:59:05 PM 40.7050 -77.3250 265° West 403 464 40,000  Level New Center
Mon 09:01:10 PM 40.6861 -77.6450 266° West 436 502 40,000  Level Cleveland Center
Mon 09:02:09 PM 40.6753 -77.8014 265° West 436 502 40,000  Level Cleveland Center
Mon 09:03:09 PM 40.6644 -77.9581 265° West 436 502 40,000  Level Cleveland Center
Mon 09:04:09 PM 40.6556 -78.1172 266° West 441 507 40,000  Level Cleveland Center
Mon 09:05:09 PM 40.6442 -78.2736 265° West 441 507 40,000  Level Cleveland Center
Mon 09:06:09 PM 40.6306 -78.4328 264° West 441 507 40,000  Level Cleveland Center
Mon 09:07:09 PM 40.6211 -78.5917 266° West 441 507 40,000  Level Cleveland Center
Mon 09:08:09 PM 40.6111 -78.7533 265° West 441 507 40,000  Level Cleveland Center
Mon 09:09:09 PM 40.5989 -78.9094 264° West 441 507 40,000  Level Cleveland Center
Mon 09:10:09 PM 40.5889 -79.0819 266° West 441 507 40,000  Level Cleveland Center
Mon 09:11:09 PM 40.5742 -79.2300 263° West 441 507 40,000  Level Cleveland Center
Mon 09:12:09 PM 40.5614 -79.4025 264° West 441 507 40,000  Level Cleveland Center
Mon 09:13:09 PM 40.5503 -79.5558 265° West 441 507 40,000  Level Cleveland Center
Mon 09:14:09 PM 40.5369 -79.7144 264° West 441 507 40,000  Level Cleveland Center
Mon 09:15:09 PM 40.5236 -79.8731 264° West 441 507 40,000  Level Cleveland Center
Mon 09:16:09 PM 40.5097 -80.0150 263° West 447 514 40,000  Level Cleveland Center
Mon 09:17:09 PM 40.4981 -80.1764 265° West 447 514 40,000  Level Cleveland Center
Mon 09:18:09 PM 40.4839 -80.3292 263° West 440 506 40,000  Level Cleveland Center
Mon 09:19:09 PM 40.4717 -80.4847 264° West 440 506 40,000  Level Cleveland Center
Mon 09:20:09 PM 40.4592 -80.6431 264° West 440 506 40,000  Level Cleveland Center
Mon 09:21:52 PM 40.4306 -80.9161 262° West 439 505 40,000  Level Indianapolis Center
Mon 09:22:53 PM 40.4150 -81.0769 263° West 440 506 40,000  Level Indianapolis Center
Mon 09:23:54 PM 40.4003 -81.2361 263° West 437 503 40,000  Level Indianapolis Center
Mon 09:24:56 PM 40.3847 -81.3958 263° West 436 502 40,000  Level Indianapolis Center
Mon 09:25:57 PM 40.3706 -81.5553 263° West 435 501 40,000  Level Indianapolis Center
Mon 09:26:58 PM 40.3539 -81.7150 262° West 436 502 40,000  Level Indianapolis Center
Mon 09:28:00 PM 40.3392 -81.8731 263° West 432 497 40,000  Level Indianapolis Center
Mon 09:29:01 PM 40.3206 -82.0578 263° West 433 498 40,000  Level Indianapolis Center
Mon 09:30:02 PM 40.3033 -82.2153 262° West 433 498 40,000  Level Indianapolis Center
Mon 09:31:04 PM 40.2872 -82.3731 262° West 432 497 40,000  Level Indianapolis Center
Mon 09:32:05 PM 40.2711 -82.5292 262° West 428 493 40,000  Level Indianapolis Center
Mon 09:33:07 PM 40.2542 -82.6867 262° West 431 496 40,000  Level Indianapolis Center
Mon 09:34:08 PM 40.2350 -82.8531 261° West 433 498 40,000  Level Indianapolis Center
Mon 09:35:10 PM 40.2183 -83.0108 262° West 437 503 40,000  Level Indianapolis Center
Mon 09:36:11 PM 40.2000 -83.1692 261° West 439 505 40,000  Level Indianapolis Center
Mon 09:37:12 PM 40.1825 -83.3294 262° West 444 511 40,000  Level Indianapolis Center
Mon 09:38:14 PM 40.1642 -83.4889 261° West 444 511 40,000  Level Indianapolis Center
Mon 09:39:15 PM 40.1458 -83.6497 262° West 448 516 40,000  Level Indianapolis Center
Mon 09:40:17 PM 40.1269 -83.8119 261° West 451 519 40,000  Level Indianapolis Center
Mon 09:41:18 PM 40.1069 -83.9744 261° West 452 520 40,000  Level Indianapolis Center
Mon 09:42:20 PM 40.0836 -84.1667 261° West 457 526 40,000 293 Level Indianapolis Center
Mon 09:43:21 PM 40.0633 -84.3289 261° West 452 520 40,600 787 Climbing Indianapolis Center
Mon 09:44:22 PM 40.0453 -84.4856 261° West 437 503 41,600 976 Climbing Indianapolis Center
Mon 09:45:24 PM 40.0256 -84.6367 260° West 424 488 42,600 683 Climbing Indianapolis Center
Mon 09:46:25 PM 40.0064 -84.7831 260° West 409 471 43,000 195 Climbing Indianapolis Center
Mon 09:47:27 PM 39.9906 -84.9108 261° West 407 468 43,000  Level Indianapolis Center
Mon 09:48:28 PM 39.9678 -85.0869 260° West 412 474 43,000  Level Indianapolis Center
Mon 09:49:29 PM 39.9489 -85.2344 261° West 415 478 43,000  Level Indianapolis Center
Mon 09:50:31 PM 39.9289 -85.3822 260° West 416 479 43,000  Level Indianapolis Center
Mon 09:51:32 PM 39.9097 -85.5294 260° West 415 478 43,000  Level Indianapolis Center
Mon 09:52:33 PM 39.8900 -85.6783 260° West 420 483 43,000  Level Indianapolis Center
Mon 09:53:35 PM 39.8686 -85.8281 260° West 421 484 43,000  Level Indianapolis Center
Mon 09:54:36 PM 39.8486 -85.9781 260° West 424 488 43,000  Level Indianapolis Center
Mon 09:55:37 PM 39.8242 -86.1567 260° West 424 488 43,000  Level Indianapolis Center
Mon 09:56:39 PM 39.8044 -86.2892 259° West 424 488 43,000  Level Indianapolis Center
Mon 09:57:40 PM 39.7831 -86.4456 260° West 422 486 43,000  Level Indianapolis Center
Mon 09:58:41 PM 39.7619 -86.5967 260° West 427 491 43,000  Level Indianapolis Center
Mon 09:59:42 PM 39.7400 -86.7469 259° West 426 490 43,000  Level Indianapolis Center
Mon 10:00:44 PM 39.7183 -86.8986 260° West 430 495 43,000  Level Indianapolis Center
Mon 10:01:45 PM 39.6906 -87.0814 259° West 432 497 43,000  Level Indianapolis Center
Mon 10:02:46 PM 39.6689 -87.2350 260° West 434 499 43,000  Level Indianapolis Center
Mon 10:03:47 PM 39.6461 -87.3881 259° West 434 499 43,000  Level Indianapolis Center
Mon 10:04:49 PM 39.6222 -87.5422 259° West 437 503 43,000  Level Indianapolis Center
Mon 10:05:50 PM 39.5969 -87.6950 258° West 436 502 43,000  Level Indianapolis Center
Mon 10:06:51 PM 39.5736 -87.8478 259° West 434 499 43,000  Level Indianapolis Center
Mon 10:07:52 PM 39.5506 -88.0022 259° West 437 503 43,000  Level Indianapolis Center
Mon 10:08:44 PM 39.5250 -88.1611 258° West 437 503 43,000 265 Level Kansas Center
Mon 10:09:45 PM 39.5006 -88.3142 258° West 436 502 43,500  Climbing Kansas Center
Mon 10:10:47 PM 39.4764 -88.4683 259° West 436 502 43,000 -244 Descending Kansas Center
Mon 10:11:48 PM 39.4506 -88.6217 258° West 440 506 43,000  Level Kansas Center
Mon 10:12:50 PM 39.4264 -88.7778 259° West 442 509 43,000  Level Kansas Center
Mon 10:13:51 PM 39.4008 -88.9208 257° West 442 509 43,000  Level Kansas Center
Mon 10:14:52 PM 39.3767 -89.0761 259° West 442 509 43,000  Level Kansas Center
Mon 10:15:54 PM 39.3450 -89.2617 258° West 443 510 43,000  Level Kansas Center
Mon 10:16:55 PM 39.3194 -89.4161 258° West 441 507 43,000  Level Kansas Center
Mon 10:17:57 PM 39.2925 -89.5714 257° West 444 511 43,000  Level Kansas Center
Mon 10:18:58 PM 39.2661 -89.7253 258° West 443 510 43,000  Level Kansas Center
Mon 10:19:59 PM 39.2394 -89.8814 258° West 445 512 43,000  Level Kansas Center
Mon 10:21:01 PM 39.2131 -90.0358 258° West 446 513 43,000  Level Kansas Center
Mon 10:22:02 PM 39.1856 -90.1917 257° West 448 516 43,000  Level Kansas Center
Mon 10:23:03 PM 39.1525 -90.3775 257° West 448 516 43,000  Level Kansas Center
Mon 10:24:05 PM 39.1253 -90.5319 257° West 448 516 43,000  Level Kansas Center
Mon 10:25:06 PM 39.0975 -90.6847 257° West 445 512 43,000  Level Kansas Center
Mon 10:26:08 PM 39.0708 -90.8389 257° West 444 511 43,000  Level Kansas Center
Mon 10:27:09 PM 39.0414 -90.9939 256° West 448 516 43,000  Level Kansas Center
Mon 10:28:10 PM 39.0131 -91.1497 257° West 450 518 43,000  Level Kansas Center
Mon 10:29:12 PM 38.9842 -91.3042 257° West 449 517 43,000  Level Kansas Center
Mon 10:30:13 PM 38.9492 -91.4906 256° West 448 516 43,000  Level Kansas Center
Mon 10:31:14 PM 38.9192 -91.6472 256° West 451 519 43,000  Level Kansas Center
Mon 10:32:15 PM 38.8900 -91.7958 256° West 450 518 43,000  Level Kansas Center
Mon 10:33:17 PM 38.8600 -91.9542 256° West 454 522 43,000  Level Kansas Center
Mon 10:34:18 PM 38.8292 -92.1106 256° West 454 522 43,000  Level Kansas Center
Mon 10:35:19 PM 38.7983 -92.2667 256° West 453 521 43,000  Level Kansas Center
Mon 10:36:21 PM 38.7603 -92.4536 255° West 453 521 43,000  Level Kansas Center
Mon 10:37:22 PM 38.7297 -92.6072 256° West 449 517 43,000  Level Kansas Center
Mon 10:38:23 PM 38.6978 -92.7650 256° West 454 522 43,000  Level Kansas Center
Mon 10:39:25 PM 38.6664 -92.9236 256° West 459 528 43,000  Level Kansas Center
Mon 10:40:26 PM 38.6339 -93.0811 255° West 459 528 43,000  Level Kansas Center
Mon 10:41:27 PM 38.6022 -93.2381 256° West 458 527 43,000  Level Kansas Center
Mon 10:42:29 PM 38.5703 -93.3953 255° West 458 527 43,000  Level Kansas Center
Mon 10:43:30 PM 38.5364 -93.5539 255° West 460 529 43,000  Level Kansas Center
Mon 10:44:31 PM 38.5039 -93.7106 255° West 460 529 43,000  Level Kansas Center
Mon 10:45:32 PM 38.4628 -93.8994 255° West 460 529 43,000  Level Kansas Center
Mon 10:46:34 PM 38.4297 -94.0567 255° West 460 529 43,000  Level Kansas Center
Mon 10:47:35 PM 38.3969 -94.2100 255° West 463 533 43,000  Level Kansas Center
Mon 10:48:36 PM 38.3636 -94.3594 254° West 459 528 43,000  Level Kansas Center
Mon 10:49:38 PM 38.3256 -94.5353 255° West 460 529 43,000  Level Kansas Center
Mon 10:50:39 PM 38.2917 -94.6864 254° West 461 531 43,000  Level Kansas Center
Mon 10:51:40 PM 38.2425 -94.8289 246° West 464 534 43,000  Level Kansas Center
Mon 10:52:41 PM 38.1722 -94.9892 241° Southwest 462 532 43,000 -390 Level Kansas Center
Mon 10:53:43 PM 38.1111 -95.1303 241° Southwest 470 541 42,200 -1,171 Descending Kansas Center
Mon 10:54:44 PM 38.0422 -95.2942 242° Southwest 470 541 40,600 -1,525 Descending Kansas Center
Mon 10:55:45 PM 37.9844 -95.4342 242° Southwest 468 539 39,100 -1,426 Descending Kansas Center
Mon 10:56:46 PM 37.9514 -95.5858 255° West 468 539 37,700 -1,377 Descending Kansas Center
Mon 10:57:47 PM 37.9350 -95.7408 262° West 465 535 36,300 -1,574 Descending Kansas Center
Mon 10:58:48 PM 37.9172 -95.9306 263° West 457 526 34,500 -1,623 Descending Kansas Center
Mon 10:59:49 PM 37.9017 -96.0869 263° West 451 519 33,000 -1,512 Descending Kansas Center
Mon 11:00:51 PM 37.8892 -96.2178 263° West 444 511 31,400 -1,707 Descending Kansas Center
Mon 11:01:52 PM 37.8742 -96.3722 263° West 442 509 29,500 -2,016 Descending Kansas Center
Mon 11:02:53 PM 37.8581 -96.5317 263° West 454 522 27,300 -2,459 Descending Kansas Center
Mon 11:03:54 PM 37.8386 -96.7189 263° West 448 516 24,500 -2,607 Descending Kansas Center
Mon 11:04:55 PM 37.8231 -96.8689 263° West 433 498 22,000 -2,852 Descending Kansas Center
Mon 11:05:56 PM 37.8008 -97.0081 259° West 408 470 18,700 -3,492 Descending Kansas Center
Mon 11:06:57 PM 37.7817 -97.1314 259° West 366 421 14,900 -3,885 Descending Kansas Center
Mon 11:07:58 PM 37.7661 -97.2300 259° West 289 333 10,800 -4,100 Descending Kansas Center
Mon 11:08:57 PM 37.7514 -97.3153 258° West 227 261 6,700 -3,850 Descending Kansas Center
Mon 11:09:58 PM 37.7308 -97.3847 249° West 207 238 3,100 -2,361 Descending Kansas Center
Mon 11:10:59 PM 37.6908 -97.4042 201° Southwest 113 130 1,900 -835 Descending Kansas Center
Mon 11:11:53 PM 37.6667 -97.4158 201° Southwest 96 110 1,500 -444 Descending Kansas Center
Mon 11:14:00 PM 37.6499 -97.4331 238° Southwest  Level Estimated
Mon 11:21:00 PM 37.6499 -97.4331 238° Southwest  Level Estimated

Login

Don't have an account? Register now (free) for customized features, flight alerts, and more!